createdAt,value
2022-11-02T05:10:57.464Z,10.88
2022-11-02T05:14:02.342Z,11.15
2022-11-02T05:17:06.450Z,10.40
2022-11-02T05:20:13.346Z,11.32
2022-11-02T05:23:26.139Z,10.73
2022-11-02T05:27:00.883Z,11.02
2022-11-02T05:30:07.444Z,10.85
2022-11-02T05:33:14.256Z,10.65
2022-11-02T05:36:18.589Z,10.70
2022-11-02T05:39:22.215Z,10.55
2022-11-02T05:42:27.310Z,10.82
2022-11-02T05:45:31.714Z,10.95
2022-11-02T05:48:35.311Z,11.25
2022-11-02T05:51:40.540Z,11.07
2022-11-02T05:54:46.010Z,12.43
2022-11-02T05:57:59.652Z,11.48
2022-11-02T06:01:06.426Z,11.25
2022-11-02T06:04:12.837Z,12.37
2022-11-02T06:07:18.403Z,12.57
2022-11-02T06:10:25.128Z,12.77
2022-11-02T06:13:27.886Z,12.43
2022-11-02T06:16:31.521Z,12.25
2022-11-02T06:19:34.416Z,11.68
2022-11-02T06:22:41.959Z,13.55
2022-11-02T06:25:50.954Z,13.60
2022-11-02T06:28:54.158Z,12.48
2022-11-02T06:31:57.598Z,11.63
2022-11-02T06:35:00.904Z,12.60
2022-11-02T06:38:03.654Z,14.05
2022-11-02T06:41:07.366Z,15.13
2022-11-02T06:44:10.857Z,13.27
2022-11-02T06:47:20.622Z,13.95
2022-11-02T06:50:25.033Z,13.00
2022-11-02T06:53:32.138Z,12.13
2022-11-02T06:56:41.085Z,12.70
2022-11-02T07:00:04.108Z,12.70
2022-11-02T07:03:12.684Z,12.50
2022-11-02T07:06:16.443Z,13.75
2022-11-02T07:09:19.075Z,13.68
2022-11-02T07:12:23.181Z,13.77
2022-11-02T07:15:27.537Z,13.18
2022-11-02T07:18:30.841Z,14.65
2022-11-02T07:21:33.598Z,14.02
2022-11-02T07:24:37.038Z,14.63
2022-11-02T07:27:40.070Z,12.98
2022-11-02T07:30:42.779Z,14.60
2022-11-02T07:33:45.203Z,14.23
2022-11-02T07:36:47.983Z,14.35
2022-11-02T07:39:50.652Z,15.13
2022-11-02T07:42:56.126Z,14.73
2022-11-02T07:46:04.780Z,15.00
2022-11-02T07:49:09.748Z,14.07
2022-11-02T07:52:14.802Z,14.60
2022-11-02T07:55:22.958Z,13.80
2022-11-02T07:58:28.639Z,14.15
2022-11-02T08:01:31.889Z,13.88
2022-11-02T08:04:38.344Z,16.10
2022-11-02T08:10:50.101Z,14.32
2022-11-02T08:13:52.472Z,14.25
2022-11-02T08:16:55.310Z,14.25
2022-11-02T08:19:58.307Z,14.55
2022-11-02T08:23:01.681Z,14.38
2022-11-02T08:26:05.559Z,15.13
2022-11-02T08:29:08.298Z,16.00
2022-11-02T08:36:18.950Z,15.20
2022-11-02T08:42:23.754Z,15.70
2022-11-02T08:45:27.517Z,15.25
2022-11-02T08:48:29.644Z,15.00
2022-11-02T08:51:35.888Z,16.08
2022-11-02T09:07:50.204Z,17.15
2022-11-02T09:11:36.444Z,16.55
2022-11-02T09:14:49.339Z,16.73
2022-11-02T09:17:59.035Z,17.90
2022-11-02T09:29:30.727Z,17.20
2022-11-02T09:36:25.672Z,17.48
2022-11-02T09:39:29.311Z,17.75
2022-11-02T09:43:04.221Z,17.73
2022-11-02T09:46:17.270Z,15.93
2022-11-02T09:49:23.158Z,16.67
2022-11-02T09:52:33.133Z,15.57
2022-11-02T09:55:41.765Z,16.58
2022-11-02T09:58:47.691Z,17.33
2022-11-02T10:02:33.342Z,16.50
2022-11-02T10:05:53.232Z,16.15
2022-11-02T10:09:02.694Z,16.20
2022-11-02T10:12:32.597Z,15.55
2022-11-02T10:15:55.364Z,16.83
2022-11-02T10:18:58.789Z,16.27
2022-11-02T10:30:05.119Z,15.27
2022-11-02T10:33:16.575Z,15.60
2022-11-02T10:36:46.021Z,16.55
2022-11-02T10:40:03.684Z,17.33
2022-11-02T10:43:28.791Z,15.95
2022-11-02T10:46:54.258Z,16.50
2022-11-02T10:50:12.313Z,16.73
2022-11-02T10:53:40.016Z,16.23
2022-11-02T10:56:48.986Z,15.07
2022-11-02T13:57:57.875Z,9.35
2022-11-02T14:01:10.384Z,8.48
2022-11-02T14:04:16.173Z,9.02
2022-11-02T14:07:24.697Z,12.52
2022-11-02T14:10:28.641Z,9.57
2022-11-02T14:13:57.085Z,8.75
2022-11-02T14:20:43.951Z,7.90
2022-11-02T14:23:47.985Z,8.52
2022-11-02T14:27:23.816Z,8.70
2022-11-02T14:30:42.364Z,7.72
2022-11-02T14:33:55.045Z,6.33
2022-11-02T14:37:23.269Z,5.53
2022-11-02T14:40:50.354Z,5.57
2022-11-02T14:44:25.226Z,5.57
2022-11-02T14:47:33.963Z,5.45
2022-11-02T14:50:39.609Z,4.45
2022-11-02T14:53:45.814Z,5.00
2022-11-02T14:57:15.680Z,4.50
2022-11-02T15:00:21.316Z,5.10
2022-11-02T15:03:23.996Z,4.47
2022-11-02T15:06:28.588Z,4.70
2022-11-02T15:09:56.682Z,4.25
2022-11-02T15:13:21.055Z,4.30
2022-11-02T15:16:24.059Z,4.68
2022-11-02T15:19:37.130Z,4.20
2022-11-02T15:22:45.772Z,4.28
2022-11-02T15:28:58.861Z,4.10
2022-11-02T15:32:03.951Z,3.87
2022-11-02T15:35:17.267Z,4.35
2022-11-02T15:38:32.624Z,4.25
2022-11-02T15:41:40.577Z,3.62
2022-11-02T15:45:34.196Z,8.20
2022-11-02T15:49:02.916Z,5.20
2022-11-02T15:52:14.893Z,5.40
2022-11-02T15:55:29.580Z,5.53
2022-11-02T15:58:50.887Z,8.05
2022-11-02T16:02:11.812Z,5.72
2022-11-02T16:05:28.488Z,4.70
